Frei Inocencio, Brazil
Current Conditions -  °F | °C
As of 4:00 PM on Tuesday 21 Oct 2014 (Local Time) from SBIP Reporting Station
Broken Clouds Broken Clouds  
Wind Chill: 81°   Ceiling: 5000
Heat Index: 82°   Visibility: 6mi
Dew Point: 63°   Wind: 5mph
Humidity: 54%   Direction: 150°SSE
Pressure: 29.97"   Gusts: NA
Location:  18.56°S, 41.9°W
Report Text: SBIP 211800Z 15004KT 9999 FEW025 BKN050 27/17 Q1015
Loading
Personal Weather Stations






























Interactive Weather Map
Tropical Storm Tracking
New forecast layout! Learn more

10-Day Weather Forecast

Advertisements
Track Severe Weather on mobile